Time;durP1;ratioP1;P1;durP2;ratioP2;P2;SDS_P1;SDS_P2;PMS_P1;PMS_P2;Temp;Humidity;BMP_temperature;BMP_pressure;BME280_temperature;BME280_humidity;BME280_pressure;Samples;Min_cycle;Max_cycle;Signal;HPM_P1;HPM_P2
2023/12/29 00:00:56;;;;;;;;;;;;;;;;;;106973;1254;61504;-81
2023/12/29 00:03:38;;;;;;;;;;;;;;;;;;106868;1254;61670;-80
2023/12/29 00:06:05;;;;;;;;;;;;;;;;;;106971;1254;62460;-80
2023/12/29 00:08:32;;;;;;;;;;;;;;;;;;106892;1254;61606;-80
2023/12/29 00:10:58;;;;;;;;;;;;;;;;;;109489;1253;60745;-80
2023/12/29 00:13:25;;;;;;;;;;;;;;;;;;109499;1252;59700;-80
2023/12/29 00:15:51;;;;;;;;;;;;;;;;;;109548;1255;59720;-80
2023/12/29 00:18:18;;;;;;;;;;;;;;;;;;107681;1251;60495;-80
2023/12/29 00:20:44;;;;;;;;;;;;;;;;;;107088;1251;61798;-80
2023/12/29 00:23:10;;;;;;;;;;;;;;;;;;107025;1253;61648;-80
2023/12/29 00:25:37;;;;;;;;;;;;;;;;;;107022;1254;61643;-80
2023/12/29 00:28:03;;;;;;;;;;;;;;;;;;107004;1254;60698;-80
2023/12/29 00:30:29;;;;;;;;;;;;;;;;;;107060;1255;60630;-80
2023/12/29 00:32:56;;;;;;;;;;;;;;;;;;107064;1254;61614;-80
2023/12/29 00:35:22;;;;;;;;;;;;;;;;;;106970;1251;61465;-80
2023/12/29 00:37:48;;;;;;;;;;;;;;;;;;107019;1255;61748;-80
2023/12/29 00:40:15;;;;;;;;;;;;;;;;;;107018;1253;60049;-80
2023/12/29 00:42:41;;;;;;;;;;;;;;;;;;107001;1256;60779;-81
2023/12/29 00:45:08;;;;;;;;;;;;;;;;;;107950;1253;62588;-80
2023/12/29 00:47:34;;;;;;;;;;;;;;;;;;106786;1254;60582;-79
2023/12/29 00:50:00;;;;;;;;;;;;;;;;;;108621;1254;61733;-81
2023/12/29 00:52:27;;;;;;;;;;;;;;;;;;107326;1254;61624;-80
2023/12/29 00:54:53;;;;;;;;;;;;;;;;;;106871;1254;60603;-80
2023/12/29 00:57:19;;;;;;;;;;;;;;;;;;106901;1254;60041;-80
2023/12/29 00:59:46;;;;;;;;;;;;;;;;;;106825;1254;61554;-79
2023/12/29 01:02:12;;;;;;;;;;;;;;;;;;106833;1254;62801;-80
2023/12/29 01:04:39;;;;;;;;;;;;;;;;;;106829;1256;60672;-80
2023/12/29 01:07:05;;;;;;;;;;;;;;;;;;106840;1254;60385;-81
2023/12/29 01:09:32;;;;;;;;;;;;;;;;;;106879;1254;60645;-80
2023/12/29 01:11:58;;;;;;;;;;;;;;;;;;106831;1253;60579;-81
2023/12/29 01:14:24;;;;;;;;;;;;;;;;;;106887;1254;60712;-80
2023/12/29 01:16:51;;;;;;;;;;;;;;;;;;106895;1254;60012;-80
2023/12/29 01:19:17;;;;;;;;;;;;;;;;;;106949;1252;62917;-81
2023/12/29 01:21:44;;;;;;;;;;;;;;;;;;106935;1254;61654;-80
2023/12/29 01:24:10;;;;;;;;;;;;;;;;;;106849;1254;61181;-80
2023/12/29 01:26:36;;;;;;;;;;;;;;;;;;106868;1254;60013;-80
2023/12/29 01:29:03;;;;;;;;;;;;;;;;;;106877;1254;61593;-80
2023/12/29 01:31:30;;;;;;;;;;;;;;;;;;106936;1254;60038;-80
2023/12/29 01:33:56;;;;;;;;;;;;;;;;;;106877;1254;61701;-80
2023/12/29 01:36:23;;;;;;;;;;;;;;;;;;106932;1252;60487;-80
2023/12/29 01:38:49;;;;;;;;;;;;;;;;;;106887;1254;60607;-80
2023/12/29 01:41:16;;;;;;;;;;;;;;;;;;106914;1254;60475;-80
2023/12/29 01:43:42;;;;;;;;;;;;;;;;;;106862;1253;61330;-80
2023/12/29 01:46:08;;;;;;;;;;;;;;;;;;106789;1252;60568;-80
2023/12/29 01:48:35;;;;;;;;;;;;;;;;;;106907;1254;62699;-81
2023/12/29 01:51:01;;;;;;;;;;;;;;;;;;106815;1254;62017;-80
2023/12/29 01:53:27;;;;;;;;;;;;;;;;;;109089;1253;59674;-80
2023/12/29 01:55:54;;;;;;;;;;;;;;;;;;109493;1254;59607;-80
2023/12/29 01:58:20;;;;;;;;;;;;;;;;;;107146;1254;60625;-80
2023/12/29 02:00:46;;;;;;;;;;;;;;;;;;106937;1252;60754;-80
2023/12/29 02:03:13;;;;;;;;;;;;;;;;;;106909;1254;60237;-80
2023/12/29 02:05:39;;;;;;;;;;;;;;;;;;106816;1254;60698;-80
2023/12/29 02:08:05;;;;;;;;;;;;;;;;;;106893;1253;60644;-80
2023/12/29 02:10:32;;;;;;;;;;;;;;;;;;106873;1254;61364;-80
2023/12/29 02:13:00;;;;;;;;;;;;;;;;;;106921;1254;60640;-80
2023/12/29 02:15:26;;;;;;;;;;;;;;;;;;106864;1256;60651;-80
2023/12/29 02:17:55;;;;;;;;;;;;;;;;;;106841;1254;60416;-80
2023/12/29 02:20:22;;;;;;;;;;;;;;;;;;106904;1253;60409;-81
2023/12/29 02:22:48;;;;;;;;;;;;;;;;;;106917;1252;61750;-80
2023/12/29 02:25:15;;;;;;;;;;;;;;;;;;106878;1254;60697;-80
2023/12/29 02:27:42;;;;;;;;;;;;;;;;;;106918;1253;60646;-80
2023/12/29 02:30:09;;;;;;;;;;;;;;;;;;106851;1254;62648;-80
2023/12/29 02:32:35;;;;;;;;;;;;;;;;;;109455;1254;59721;-80
2023/12/29 02:35:01;;;;;;;;;;;;;;;;;;109497;1252;59896;-80
2023/12/29 02:37:28;;;;;;;;;;;;;;;;;;109467;1253;59887;-80
2023/12/29 02:39:54;;;;;;;;;;;;;;;;;;109502;1253;59937;-80
2023/12/29 02:42:20;;;;;;;;;;;;;;;;;;109504;1253;59687;-80
2023/12/29 02:44:47;;;;;;;;;;;;;;;;;;109510;1253;59766;-80
2023/12/29 02:47:13;;;;;;;;;;;;;;;;;;109483;1252;59914;-80
2023/12/29 02:49:40;;;;;;;;;;;;;;;;;;109518;1252;59673;-80
2023/12/29 02:52:06;;;;;;;;;;;;;;;;;;109502;1254;59667;-80
2023/12/29 02:54:32;;;;;;;;;;;;;;;;;;107866;1254;62767;-80
2023/12/29 02:56:59;;;;;;;;;;;;;;;;;;106859;1254;61670;-80
2023/12/29 02:59:25;;;;;;;;;;;;;;;;;;106848;1256;61674;-80
2023/12/29 03:01:51;;;;;;;;;;;;;;;;;;106861;1256;60654;-80
2023/12/29 03:04:18;;;;;;;;;;;;;;;;;;106866;1254;60695;-80
2023/12/29 03:06:44;;;;;;;;;;;;;;;;;;106863;1254;61857;-80
2023/12/29 03:09:11;;;;;;;;;;;;;;;;;;106924;1253;61638;-80
2023/12/29 03:11:37;;;;;;;;;;;;;;;;;;106860;1254;60644;-80
2023/12/29 03:14:04;;;;;;;;;;;;;;;;;;106929;1253;60691;-79
2023/12/29 03:16:30;;;;;;;;;;;;;;;;;;106913;1254;61582;-80
2023/12/29 03:18:56;;;;;;;;;;;;;;;;;;106826;1254;61806;-80
2023/12/29 03:21:23;;;;;;;;;;;;;;;;;;106903;1254;60686;-80
2023/12/29 03:23:49;;;;;;;;;;;;;;;;;;106831;1254;60741;-80
2023/12/29 03:26:16;;;;;;;;;;;;;;;;;;106826;1254;61835;-79
2023/12/29 03:28:42;;;;;;;;;;;;;;;;;;106882;1254;61769;-80
2023/12/29 03:31:09;;;;;;;;;;;;;;;;;;106858;1254;62409;-80
2023/12/29 03:33:35;;;;;;;;;;;;;;;;;;106847;1256;60644;-80
2023/12/29 03:36:01;;;;;;;;;;;;;;;;;;106826;1254;61804;-80
2023/12/29 03:38:28;;;;;;;;;;;;;;;;;;106830;1253;61248;-80
2023/12/29 03:40:54;;;;;;;;;;;;;;;;;;106857;1254;60630;-80
2023/12/29 03:43:21;;;;;;;;;;;;;;;;;;106756;1254;61663;-80
2023/12/29 03:45:47;;;;;;;;;;;;;;;;;;106819;1256;60302;-79
2023/12/29 03:48:14;;;;;;;;;;;;;;;;;;106824;1254;60745;-80
2023/12/29 03:50:40;;;;;;;;;;;;;;;;;;106915;1254;61845;-80
2023/12/29 03:53:06;;;;;;;;;;;;;;;;;;106844;1254;60614;-80
2023/12/29 03:55:33;;;;;;;;;;;;;;;;;;106870;1254;61275;-79
2023/12/29 03:58:01;;;;;;;;;;;;;;;;;;106892;1256;62052;-80
2023/12/29 04:00:28;;;;;;;;;;;;;;;;;;106872;1256;61636;-80
2023/12/29 04:02:54;;;;;;;;;;;;;;;;;;106922;1253;62603;-81
2023/12/29 04:05:21;;;;;;;;;;;;;;;;;;106894;1254;60618;-80
2023/12/29 04:07:47;;;;;;;;;;;;;;;;;;106881;1254;60050;-80
2023/12/29 04:10:14;;;;;;;;;;;;;;;;;;106865;1254;60495;-80
2023/12/29 04:12:40;;;;;;;;;;;;;;;;;;106845;1254;60546;-79
2023/12/29 04:15:06;;;;;;;;;;;;;;;;;;106987;1252;62930;-79
2023/12/29 04:17:33;;;;;;;;;;;;;;;;;;106849;1254;60731;-79
2023/12/29 04:19:59;;;;;;;;;;;;;;;;;;106818;1254;62965;-79
2023/12/29 04:22:26;;;;;;;;;;;;;;;;;;106901;1254;62939;-80
2023/12/29 04:24:52;;;;;;;;;;;;;;;;;;106839;1253;61455;-79
2023/12/29 04:27:19;;;;;;;;;;;;;;;;;;106873;1254;60047;-79
2023/12/29 04:29:45;;;;;;;;;;;;;;;;;;106843;1254;61446;-80
2023/12/29 04:32:11;;;;;;;;;;;;;;;;;;106877;1254;61552;-79
2023/12/29 04:34:38;;;;;;;;;;;;;;;;;;106815;1256;60563;-80
2023/12/29 04:37:04;;;;;;;;;;;;;;;;;;106794;1254;61749;-80
2023/12/29 04:39:31;;;;;;;;;;;;;;;;;;106747;1254;62536;-80
2023/12/29 04:41:57;;;;;;;;;;;;;;;;;;106876;1254;61199;-80
2023/12/29 04:44:23;;;;;;;;;;;;;;;;;;106887;1254;60656;-79
2023/12/29 04:46:50;;;;;;;;;;;;;;;;;;106881;1254;61849;-80
2023/12/29 04:49:16;;;;;;;;;;;;;;;;;;106812;1256;63032;-80
2023/12/29 04:51:42;;;;;;;;;;;;;;;;;;106885;1254;60583;-80
2023/12/29 04:54:09;;;;;;;;;;;;;;;;;;106872;1254;60503;-79
2023/12/29 04:56:35;;;;;;;;;;;;;;;;;;106906;1254;60576;-80
2023/12/29 04:59:02;;;;;;;;;;;;;;;;;;106905;1254;60759;-80
2023/12/29 05:01:28;;;;;;;;;;;;;;;;;;106898;1256;60693;-80
2023/12/29 05:03:54;;;;;;;;;;;;;;;;;;106848;1254;62084;-80
2023/12/29 05:06:21;;;;;;;;;;;;;;;;;;106801;1254;63704;-80
2023/12/29 05:08:47;;;;;;;;;;;;;;;;;;106928;1253;60730;-81
2023/12/29 05:11:14;;;;;;;;;;;;;;;;;;106864;1256;61502;-80
2023/12/29 05:13:40;;;;;;;;;;;;;;;;;;106943;1254;60757;-80
2023/12/29 05:16:06;;;;;;;;;;;;;;;;;;106888;1254;60599;-79
2023/12/29 05:18:33;;;;;;;;;;;;;;;;;;106852;1254;60630;-81
2023/12/29 05:20:59;;;;;;;;;;;;;;;;;;106911;1254;60634;-81
2023/12/29 05:23:26;;;;;;;;;;;;;;;;;;106865;1254;60659;-81
2023/12/29 05:25:52;;;;;;;;;;;;;;;;;;109102;1254;59845;-80
2023/12/29 05:28:19;;;;;;;;;;;;;;;;;;109512;1252;59843;-80
2023/12/29 05:30:45;;;;;;;;;;;;;;;;;;107636;1254;60638;-80
2023/12/29 05:33:12;;;;;;;;;;;;;;;;;;106926;1256;62380;-81
2023/12/29 05:35:38;;;;;;;;;;;;;;;;;;106937;1256;60545;-80
2023/12/29 05:38:04;;;;;;;;;;;;;;;;;;108077;1254;60629;-80
2023/12/29 05:40:31;;;;;;;;;;;;;;;;;;107013;1253;60655;-80
2023/12/29 05:42:57;;;;;;;;;;;;;;;;;;106861;1259;61728;-81
2023/12/29 05:45:24;;;;;;;;;;;;;;;;;;106910;1254;60725;-81
2023/12/29 05:47:50;;;;;;;;;;;;;;;;;;106906;1257;60722;-81
2023/12/29 05:50:17;;;;;;;;;;;;;;;;;;106873;1257;60638;-80
2023/12/29 05:52:43;;;;;;;;;;;;;;;;;;106874;1253;60048;-82
2023/12/29 05:55:09;;;;;;;;;;;;;;;;;;106829;1254;60651;-80
2023/12/29 05:57:36;;;;;;;;;;;;;;;;;;106802;1257;60656;-80
2023/12/29 06:00:02;;;;;;;;;;;;;;;;;;106910;1256;60911;-80
2023/12/29 06:02:29;;;;;;;;;;;;;;;;;;106885;1254;60650;-81
2023/12/29 06:04:55;;;;;;;;;;;;;;;;;;106806;1255;60054;-80
2023/12/29 06:07:21;;;;;;;;;;;;;;;;;;106854;1254;60622;-80
2023/12/29 06:09:48;;;;;;;;;;;;;;;;;;106918;1254;62913;-80
2023/12/29 06:12:14;;;;;;;;;;;;;;;;;;107071;1254;62831;-81
2023/12/29 06:14:41;;;;;;;;;;;;;;;;;;106914;1256;60558;-80
2023/12/29 06:17:07;;;;;;;;;;;;;;;;;;106968;1257;62486;-80
2023/12/29 06:19:33;;;;;;;;;;;;;;;;;;106841;1256;60239;-80
2023/12/29 06:22:00;;;;;;;;;;;;;;;;;;106846;1253;61852;-80
2023/12/29 06:24:27;;;;;;;;;;;;;;;;;;106775;1254;60661;-80
2023/12/29 06:26:53;;;;;;;;;;;;;;;;;;106882;1254;60652;-80
2023/12/29 06:29:19;;;;;;;;;;;;;;;;;;106870;1254;62050;-80
2023/12/29 06:31:46;;;;;;;;;;;;;;;;;;107644;1254;61673;-80
2023/12/29 06:34:12;;;;;;;;;;;;;;;;;;109338;1254;172141;-80
2023/12/29 06:36:39;;;;;;;;;;;;;;;;;;109476;1254;60002;-80
2023/12/29 06:39:05;;;;;;;;;;;;;;;;;;109486;1254;59899;-81
2023/12/29 06:41:32;;;;;;;;;;;;;;;;;;109488;1254;59661;-80
2023/12/29 06:43:59;;;;;;;;;;;;;;;;;;109425;1257;59721;-81
2023/12/29 06:46:25;;;;;;;;;;;;;;;;;;108490;1254;61822;-80
2023/12/29 06:48:52;;;;;;;;;;;;;;;;;;106959;1254;60626;-80
2023/12/29 06:51:18;;;;;;;;;;;;;;;;;;107028;1254;60540;-80
2023/12/29 06:53:44;;;;;;;;;;;;;;;;;;106876;1256;60628;-80
2023/12/29 06:56:11;;;;;;;;;;;;;;;;;;106828;1256;61835;-80
2023/12/29 06:58:37;;;;;;;;;;;;;;;;;;106990;1256;62967;-79
2023/12/29 07:01:04;;;;;;;;;;;;;;;;;;106789;1257;60060;-80
2023/12/29 07:03:30;;;;;;;;;;;;;;;;;;106844;1254;61694;-79
2023/12/29 07:05:56;;;;;;;;;;;;;;;;;;106831;1256;60574;-80
2023/12/29 07:08:23;;;;;;;;;;;;;;;;;;106807;1257;62664;-81
2023/12/29 07:10:50;;;;;;;;;;;;;;;;;;106890;1254;61671;-80
2023/12/29 07:13:16;;;;;;;;;;;;;;;;;;106853;1254;60644;-80
2023/12/29 07:15:42;;;;;;;;;;;;;;;;;;106791;1257;62555;-80
2023/12/29 07:18:09;;;;;;;;;;;;;;;;;;106807;1255;61744;-80
2023/12/29 07:20:35;;;;;;;;;;;;;;;;;;106902;1253;62438;-80
2023/12/29 07:23:02;;;;;;;;;;;;;;;;;;106912;1254;61665;-80
2023/12/29 07:25:28;;;;;;;;;;;;;;;;;;107034;1254;61132;-80
2023/12/29 07:27:54;;;;;;;;;;;;;;;;;;107186;1253;60682;-80
2023/12/29 07:30:21;;;;;;;;;;;;;;;;;;107135;1256;60089;-79
2023/12/29 07:32:47;;;;;;;;;;;;;;;;;;109114;1255;60056;-80
2023/12/29 07:35:17;;;;;;;;;;;;;;;;;;109373;1254;59690;-80
2023/12/29 07:37:43;;;;;;;;;;;;;;;;;;109421;1254;59891;-80
2023/12/29 07:40:10;;;;;;;;;;;;;;;;;;109179;1255;59681;-81
2023/12/29 07:42:36;;;;;;;;;;;;;;;;;;107065;1257;61626;-80
2023/12/29 07:45:02;;;;;;;;;;;;;;;;;;107737;1256;61712;-80
2023/12/29 07:47:29;;;;;;;;;;;;;;;;;;107716;1253;61694;-80
2023/12/29 07:49:55;;;;;;;;;;;;;;;;;;107769;1252;60545;-81
2023/12/29 07:52:22;;;;;;;;;;;;;;;;;;107782;1255;60058;-80
2023/12/29 07:54:49;;;;;;;;;;;;;;;;;;109360;1254;59785;-80
2023/12/29 07:57:15;;;;;;;;;;;;;;;;;;109410;1256;59775;-80
2023/12/29 07:59:41;;;;;;;;;;;;;;;;;;109423;1253;59796;-81
2023/12/29 08:02:08;;;;;;;;;;;;;;;;;;109435;1254;60063;-80
2023/12/29 08:04:34;;;;;;;;;;;;;;;;;;109439;1254;59850;-80
2023/12/29 08:07:01;;;;;;;;;;;;;;;;;;109501;1254;60150;-81
2023/12/29 08:09:27;;;;;;;;;;;;;;;;;;109473;1254;61159;-81
2023/12/29 08:11:53;;;;;;;;;;;;;;;;;;109443;1254;59792;-80
2023/12/29 08:14:20;;;;;;;;;;;;;;;;;;109435;1253;60262;-80
2023/12/29 08:16:46;;;;;;;;;;;;;;;;;;109420;1254;59991;-80
2023/12/29 08:19:14;;;;;;;;;;;;;;;;;;109456;1253;59777;-81
2023/12/29 08:21:41;;;;;;;;;;;;;;;;;;109410;1254;59936;-80
2023/12/29 08:24:07;;;;;;;;;;;;;;;;;;109377;1252;60165;-80
2023/12/29 08:26:33;;;;;;;;;;;;;;;;;;106854;1254;60473;-80
2023/12/29 08:29:00;;;;;;;;;;;;;;;;;;106726;1255;60664;-80
2023/12/29 08:31:28;;;;;;;;;;;;;;;;;;106791;1254;60529;-81
2023/12/29 08:33:55;;;;;;;;;;;;;;;;;;106784;1254;60585;-81
2023/12/29 08:36:21;;;;;;;;;;;;;;;;;;107375;1254;60565;-80
2023/12/29 08:38:48;;;;;;;;;;;;;;;;;;107630;1254;61926;-81
2023/12/29 08:41:14;;;;;;;;;;;;;;;;;;107262;1254;60600;-80
2023/12/29 08:43:41;;;;;;;;;;;;;;;;;;107506;1257;60604;-81
2023/12/29 08:46:07;;;;;;;;;;;;;;;;;;107350;1257;60615;-80
2023/12/29 08:48:34;;;;;;;;;;;;;;;;;;107304;1254;60617;-81
2023/12/29 08:51:01;;;;;;;;;;;;;;;;;;107357;1251;59956;-80
2023/12/29 08:53:27;;;;;;;;;;;;;;;;;;107538;1254;61872;-81
2023/12/29 08:55:53;;;;;;;;;;;;;;;;;;107503;1254;61648;-81
2023/12/29 08:58:20;;;;;;;;;;;;;;;;;;107453;1254;60547;-80
2023/12/29 09:00:46;;;;;;;;;;;;;;;;;;107208;1253;60712;-81
2023/12/29 09:03:13;;;;;;;;;;;;;;;;;;107244;1254;62919;-81
2023/12/29 09:05:39;;;;;;;;;;;;;;;;;;107369;1253;60122;-80
2023/12/29 09:08:05;;;;;;;;;;;;;;;;;;107257;1257;60636;-80
2023/12/29 09:10:32;;;;;;;;;;;;;;;;;;107690;1254;61597;-81
2023/12/29 09:12:58;;;;;;;;;;;;;;;;;;107709;1254;63367;-80
2023/12/29 09:15:25;;;;;;;;;;;;;;;;;;107748;1254;60611;-80
2023/12/29 09:17:51;;;;;;;;;;;;;;;;;;107614;1253;60521;-81
2023/12/29 09:20:18;;;;;;;;;;;;;;;;;;107636;1254;61757;-81
2023/12/29 09:22:44;;;;;;;;;;;;;;;;;;107589;1253;60239;-81
2023/12/29 09:25:11;;;;;;;;;;;;;;;;;;107816;1254;61834;-80
2023/12/29 09:27:37;;;;;;;;;;;;;;;;;;107859;1254;62929;-80
2023/12/29 09:30:03;;;;;;;;;;;;;;;;;;107607;1254;60642;-81
2023/12/29 09:32:30;;;;;;;;;;;;;;;;;;107609;1256;60439;-81
2023/12/29 09:34:56;;;;;;;;;;;;;;;;;;107716;1254;60634;-82
2023/12/29 09:37:23;;;;;;;;;;;;;;;;;;107596;1254;60455;-81
2023/12/29 09:39:49;;;;;;;;;;;;;;;;;;107322;1254;60002;-80
2023/12/29 09:42:15;;;;;;;;;;;;;;;;;;107370;1254;60034;-81
2023/12/29 09:44:42;;;;;;;;;;;;;;;;;;107556;1254;61629;-80
2023/12/29 09:47:08;;;;;;;;;;;;;;;;;;107463;1254;60630;-80
2023/12/29 09:49:34;;;;;;;;;;;;;;;;;;107036;1254;61759;-80
2023/12/29 09:52:01;;;;;;;;;;;;;;;;;;106773;1254;60063;-80
2023/12/29 09:54:27;;;;;;;;;;;;;;;;;;106930;1254;62817;-81
2023/12/29 09:56:54;;;;;;;;;;;;;;;;;;106753;1259;60704;-80
2023/12/29 09:59:20;;;;;;;;;;;;;;;;;;106712;1254;60740;-80
2023/12/29 10:01:46;;;;;;;;;;;;;;;;;;107073;1254;60692;-81
2023/12/29 10:04:14;;;;;;;;;;;;;;;;;;106945;1255;60619;-80
2023/12/29 10:06:40;;;;;;;;;;;;;;;;;;106896;1254;61859;-80
2023/12/29 10:09:06;;;;;;;;;;;;;;;;;;106891;1252;60501;-80
2023/12/29 10:11:33;;;;;;;;;;;;;;;;;;106935;1254;61392;-81
2023/12/29 10:13:59;;;;;;;;;;;;;;;;;;107355;1253;60660;-80
2023/12/29 10:16:25;;;;;;;;;;;;;;;;;;106843;1257;61520;-80
2023/12/29 10:18:52;;;;;;;;;;;;;;;;;;106857;1256;60792;-80
2023/12/29 10:21:19;;;;;;;;;;;;;;;;;;106909;1253;61150;-81
2023/12/29 10:23:45;;;;;;;;;;;;;;;;;;107505;1254;60715;-81
2023/12/29 10:26:12;;;;;;;;;;;;;;;;;;107507;1254;62852;-81
2023/12/29 10:28:38;;;;;;;;;;;;;;;;;;107409;1254;63052;-80
2023/12/29 10:31:05;;;;;;;;;;;;;;;;;;107369;1253;61878;-80
2023/12/29 10:33:32;;;;;;;;;;;;;;;;;;107535;1254;60077;-81
2023/12/29 10:36:02;;;;;;;;;;;;;;;;;;107625;1253;61525;-80
2023/12/29 10:38:28;;;;;;;;;;;;;;;;;;107524;1256;61188;-80
2023/12/29 10:40:55;;;;;;;;;;;;;;;;;;107381;1254;60718;-81
2023/12/29 10:43:21;;;;;;;;;;;;;;;;;;107376;1253;60625;-81
2023/12/29 10:45:48;;;;;;;;;;;;;;;;;;107686;1256;61800;-80
2023/12/29 10:48:14;;;;;;;;;;;;;;;;;;107739;1253;60027;-80
2023/12/29 10:50:41;;;;;;;;;;;;;;;;;;107575;1253;61407;-80
2023/12/29 10:53:07;;;;;;;;;;;;;;;;;;107502;1252;60684;-80
2023/12/29 10:55:34;;;;;;;;;;;;;;;;;;107765;1256;61704;-80
2023/12/29 10:58:00;;;;;;;;;;;;;;;;;;107550;1254;61724;-80
2023/12/29 11:00:27;;;;;;;;;;;;;;;;;;107349;1254;60811;-80
2023/12/29 11:02:53;;;;;;;;;;;;;;;;;;107406;1254;60589;-80
2023/12/29 11:05:19;;;;;;;;;;;;;;;;;;107525;1253;60546;-80
2023/12/29 11:07:46;;;;;;;;;;;;;;;;;;107474;1254;60656;-80
2023/12/29 11:10:12;;;;;;;;;;;;;;;;;;107520;1253;62184;-80
2023/12/29 11:12:39;;;;;;;;;;;;;;;;;;107331;1254;61722;-80
2023/12/29 11:15:05;;;;;;;;;;;;;;;;;;107629;1253;60751;-81
2023/12/29 11:17:32;;;;;;;;;;;;;;;;;;107515;1256;60628;-80
2023/12/29 11:19:59;;;;;;;;;;;;;;;;;;107474;1253;60748;-80
2023/12/29 11:22:25;;;;;;;;;;;;;;;;;;107499;1254;63696;-80
2023/12/29 11:24:52;;;;;;;;;;;;;;;;;;107571;1254;60403;-80
2023/12/29 11:27:18;;;;;;;;;;;;;;;;;;107181;1254;61610;-80
2023/12/29 11:29:44;;;;;;;;;;;;;;;;;;106878;1256;60063;-82
2023/12/29 11:32:11;;;;;;;;;;;;;;;;;;108329;1253;60025;-81
2023/12/29 11:34:38;;;;;;;;;;;;;;;;;;107806;1253;60049;-80
2023/12/29 11:37:05;;;;;;;;;;;;;;;;;;107388;1253;60587;-81
2023/12/29 11:39:32;;;;;;;;;;;;;;;;;;107763;1253;61590;-82
2023/12/29 11:41:58;;;;;;;;;;;;;;;;;;107725;1253;60524;-80
2023/12/29 11:44:25;;;;;;;;;;;;;;;;;;107937;1254;60230;-80
2023/12/29 11:46:52;;;;;;;;;;;;;;;;;;108019;1254;62804;-81
2023/12/29 11:49:18;;;;;;;;;;;;;;;;;;107988;1254;61643;-80
2023/12/29 11:51:45;;;;;;;;;;;;;;;;;;109167;1254;59923;-80
2023/12/29 11:54:11;;;;;;;;;;;;;;;;;;109331;1253;60017;-80
2023/12/29 11:56:38;;;;;;;;;;;;;;;;;;108074;1253;60618;-80
2023/12/29 11:59:04;;;;;;;;;;;;;;;;;;106852;1257;60654;-80
2023/12/29 12:01:30;;;;;;;;;;;;;;;;;;106862;1254;60125;-80
2023/12/29 12:03:57;;;;;;;;;;;;;;;;;;106878;1253;60778;-81
2023/12/29 12:06:23;;;;;;;;;;;;;;;;;;106944;1254;60819;-80
2023/12/29 12:08:50;;;;;;;;;;;;;;;;;;106888;1253;60573;-81
2023/12/29 12:11:16;;;;;;;;;;;;;;;;;;106879;1253;61847;-80
2023/12/29 12:13:42;;;;;;;;;;;;;;;;;;106956;1254;60672;-81
2023/12/29 12:16:09;;;;;;;;;;;;;;;;;;107009;1253;60261;-80
2023/12/29 12:18:35;;;;;;;;;;;;;;;;;;107001;1254;61671;-81
2023/12/29 12:21:02;;;;;;;;;;;;;;;;;;107239;1254;60692;-81
2023/12/29 12:23:28;;;;;;;;;;;;;;;;;;106933;1254;61857;-80
2023/12/29 12:25:54;;;;;;;;;;;;;;;;;;107316;1254;60687;-80
2023/12/29 12:28:22;;;;;;;;;;;;;;;;;;107277;1254;60567;-81
2023/12/29 12:30:48;;;;;;;;;;;;;;;;;;107322;1254;60721;-81
2023/12/29 12:33:15;;;;;;;;;;;;;;;;;;107418;1254;62047;-81
2023/12/29 12:35:41;;;;;;;;;;;;;;;;;;107528;1253;60606;-80
2023/12/29 12:38:08;;;;;;;;;;;;;;;;;;107839;1254;60973;-80
2023/12/29 12:40:34;;;;;;;;;;;;;;;;;;107952;1253;60696;-80
2023/12/29 12:43:01;;;;;;;;;;;;;;;;;;108149;1253;60144;-80
2023/12/29 12:45:28;;;;;;;;;;;;;;;;;;108199;1253;61693;-80
2023/12/29 12:47:54;;;;;;;;;;;;;;;;;;108396;1254;60693;-80
2023/12/29 12:50:20;;;;;;;;;;;;;;;;;;107680;1253;61798;-81
2023/12/29 12:52:47;;;;;;;;;;;;;;;;;;107441;1254;60450;-80
2023/12/29 12:55:14;;;;;;;;;;;;;;;;;;107358;1254;59973;-81
2023/12/29 12:57:40;;;;;;;;;;;;;;;;;;107092;1252;60625;-80
2023/12/29 13:00:08;;;;;;;;;;;;;;;;;;106993;1253;60622;-80
2023/12/29 13:02:34;;;;;;;;;;;;;;;;;;107087;1254;61525;-80
2023/12/29 13:05:05;;;;;;;;;;;;;;;;;;107109;1251;61730;-81
2023/12/29 13:07:31;;;;;;;;;;;;;;;;;;106959;1254;62887;-80
2023/12/29 13:09:58;;;;;;;;;;;;;;;;;;106819;1253;60920;-81
2023/12/29 13:12:24;;;;;;;;;;;;;;;;;;106787;1253;60554;-81
2023/12/29 13:14:51;;;;;;;;;;;;;;;;;;107573;1253;60222;-80
2023/12/29 13:17:20;;;;;;;;;;;;;;;;;;107673;1253;60674;-81
2023/12/29 13:19:47;;;;;;;;;;;;;;;;;;107618;1253;61542;-80
2023/12/29 13:22:14;;;;;;;;;;;;;;;;;;107801;1252;60045;-80
2023/12/29 13:24:41;;;;;;;;;;;;;;;;;;109395;1253;63124;-80
2023/12/29 13:27:07;;;;;;;;;;;;;;;;;;108935;1253;60032;-82
2023/12/29 13:29:34;;;;;;;;;;;;;;;;;;107533;1253;60627;-81
2023/12/29 13:32:00;;;;;;;;;;;;;;;;;;107732;1253;60531;-80
2023/12/29 13:34:26;;;;;;;;;;;;;;;;;;107852;1253;60613;-81
2023/12/29 13:36:53;;;;;;;;;;;;;;;;;;107723;1253;60552;-81
2023/12/29 13:39:19;;;;;;;;;;;;;;;;;;107581;1253;60227;-80
2023/12/29 13:41:46;;;;;;;;;;;;;;;;;;107573;1251;61844;-80
2023/12/29 13:44:12;;;;;;;;;;;;;;;;;;107682;1251;60711;-81
2023/12/29 13:46:38;;;;;;;;;;;;;;;;;;109032;1252;60000;-80
2023/12/29 13:49:05;;;;;;;;;;;;;;;;;;109475;1251;59959;-80
2023/12/29 13:51:31;;;;;;;;;;;;;;;;;;109506;1252;59734;-81
2023/12/29 13:53:57;;;;;;;;;;;;;;;;;;109421;1253;59785;-81
2023/12/29 13:56:24;;;;;;;;;;;;;;;;;;109470;1253;59867;-81
2023/12/29 13:58:50;;;;;;;;;;;;;;;;;;109430;1252;59968;-80
2023/12/29 14:01:17;;;;;;;;;;;;;;;;;;109478;1252;59620;-80
2023/12/29 14:03:44;;;;;;;;;;;;;;;;;;109478;1252;59923;-80
2023/12/29 14:06:11;;;;;;;;;;;;;;;;;;109462;1252;59973;-80
2023/12/29 14:08:37;;;;;;;;;;;;;;;;;;109361;1254;60173;-81
2023/12/29 14:11:04;;;;;;;;;;;;;;;;;;108632;1253;60024;-80
2023/12/29 14:13:30;;;;;;;;;;;;;;;;;;107727;1253;62787;-80
2023/12/29 14:15:56;;;;;;;;;;;;;;;;;;107761;1251;60630;-81
2023/12/29 14:18:23;;;;;;;;;;;;;;;;;;107684;1253;61759;-81
2023/12/29 14:20:49;;;;;;;;;;;;;;;;;;107675;1252;60696;-80
2023/12/29 14:23:16;;;;;;;;;;;;;;;;;;107653;1252;60047;-80
2023/12/29 14:25:43;;;;;;;;;;;;;;;;;;107868;1254;60049;-80
2023/12/29 14:28:10;;;;;;;;;;;;;;;;;;107685;1253;60386;-80
2023/12/29 14:30:36;;;;;;;;;;;;;;;;;;107040;1254;61533;-80
2023/12/29 14:33:02;;;;;;;;;;;;;;;;;;107111;1254;60733;-82
2023/12/29 14:35:29;;;;;;;;;;;;;;;;;;107179;1252;60752;-81
2023/12/29 14:37:55;;;;;;;;;;;;;;;;;;106897;1254;60494;-80
2023/12/29 14:40:22;;;;;;;;;;;;;;;;;;106970;1253;61891;-80
2023/12/29 14:42:48;;;;;;;;;;;;;;;;;;106818;1254;60958;-80
2023/12/29 14:45:14;;;;;;;;;;;;;;;;;;107452;1253;61610;-80
2023/12/29 14:47:41;;;;;;;;;;;;;;;;;;107302;1253;61802;-80
2023/12/29 14:50:07;;;;;;;;;;;;;;;;;;107252;1253;60585;-81
2023/12/29 14:52:34;;;;;;;;;;;;;;;;;;107009;1254;61909;-80
2023/12/29 14:55:00;;;;;;;;;;;;;;;;;;107176;1254;60610;-80
2023/12/29 14:57:26;;;;;;;;;;;;;;;;;;106989;1254;60809;-80
2023/12/29 14:59:53;;;;;;;;;;;;;;;;;;107087;1254;60579;-80
2023/12/29 15:02:19;;;;;;;;;;;;;;;;;;106962;1253;60004;-80
2023/12/29 15:04:45;;;;;;;;;;;;;;;;;;107041;1253;60571;-80
2023/12/29 15:07:12;;;;;;;;;;;;;;;;;;106907;1254;60709;-80
2023/12/29 15:09:38;;;;;;;;;;;;;;;;;;106858;1253;60745;-80
2023/12/29 15:12:05;;;;;;;;;;;;;;;;;;106932;1252;61843;-80
2023/12/29 15:14:31;;;;;;;;;;;;;;;;;;107228;1253;62776;-80
2023/12/29 15:16:57;;;;;;;;;;;;;;;;;;107231;1254;62923;-80
2023/12/29 15:19:24;;;;;;;;;;;;;;;;;;107015;1253;62806;-81
2023/12/29 15:21:53;;;;;;;;;;;;;;;;;;107178;1254;63055;-80
2023/12/29 15:24:20;;;;;;;;;;;;;;;;;;107193;1251;60610;-80
2023/12/29 15:26:46;;;;;;;;;;;;;;;;;;107394;1252;62812;-80
2023/12/29 15:29:12;;;;;;;;;;;;;;;;;;107252;1253;62419;-80
2023/12/29 15:31:39;;;;;;;;;;;;;;;;;;107204;1254;60557;-79
2023/12/29 15:34:06;;;;;;;;;;;;;;;;;;107304;1253;60355;-80
2023/12/29 15:36:32;;;;;;;;;;;;;;;;;;107123;1254;60313;-80
2023/12/29 15:38:59;;;;;;;;;;;;;;;;;;106922;1254;60603;-79
2023/12/29 15:41:25;;;;;;;;;;;;;;;;;;107132;1253;60260;-81
2023/12/29 15:43:52;;;;;;;;;;;;;;;;;;107161;1253;60554;-81
2023/12/29 15:46:21;;;;;;;;;;;;;;;;;;106937;1253;61875;-80
2023/12/29 15:48:48;;;;;;;;;;;;;;;;;;107043;1252;60640;-80
2023/12/29 15:51:14;;;;;;;;;;;;;;;;;;107954;1253;60566;-80
2023/12/29 15:53:41;;;;;;;;;;;;;;;;;;107106;1253;61781;-80
2023/12/29 15:56:07;;;;;;;;;;;;;;;;;;107115;1254;61801;-80
2023/12/29 15:58:33;;;;;;;;;;;;;;;;;;107036;1253;60333;-80
2023/12/29 16:01:00;;;;;;;;;;;;;;;;;;107026;1253;60543;-80
2023/12/29 16:03:26;;;;;;;;;;;;;;;;;;107062;1253;60674;-80
2023/12/29 16:05:53;;;;;;;;;;;;;;;;;;107029;1253;61906;-80
2023/12/29 16:08:19;;;;;;;;;;;;;;;;;;106988;1253;61574;-80
2023/12/29 16:10:47;;;;;;;;;;;;;;;;;;107008;1253;62866;-80
2023/12/29 16:13:13;;;;;;;;;;;;;;;;;;107021;1253;62031;-80
2023/12/29 16:15:40;;;;;;;;;;;;;;;;;;107029;1253;62780;-80
2023/12/29 16:18:06;;;;;;;;;;;;;;;;;;106927;1253;62549;-80
2023/12/29 16:20:33;;;;;;;;;;;;;;;;;;106985;1254;61114;-80
2023/12/29 16:22:59;;;;;;;;;;;;;;;;;;107014;1254;61861;-80